Time;durP1;ratioP1;P1;durP2;ratioP2;P2;SDS_P1;SDS_P2;PMS_P1;PMS_P2;Temp;Humidity;BMP_temperature;BMP_pressure;BME280_temperature;BME280_humidity;BME280_pressure;Samples;Min_cycle;Max_cycle;Signal;HPM_P1;HPM_P2
2022/06/04 00:01:45;;;;;;;5.43;3.80;;;19.60;79.50;;;;;;5098335;28;20586;-42
2022/06/04 00:04:13;;;;;;;3.60;3.20;;;19.60;79.50;;;;;;5098238;28;20453;-39
2022/06/04 00:06:40;;;;;;;4.40;3.37;;;19.60;80.20;;;;;;5097975;28;20518;-39
2022/06/04 00:09:08;;;;;;;3.60;3.20;;;19.60;80.50;;;;;;5097972;28;20465;-44
2022/06/04 00:17:06;;;;;;;6.30;3.00;;;19.60;81.50;;;;;;5090719;28;20430;-46
2022/06/04 00:19:33;;;;;;;4.77;2.83;;;19.50;81.80;;;;;;5098080;28;20888;-41
2022/06/04 00:22:01;;;;;;;2.73;2.53;;;19.50;81.70;;;;;;5098215;28;20461;-44
2022/06/04 00:24:28;;;;;;;4.00;3.70;;;19.50;82.50;;;;;;5097039;28;20462;-45
2022/06/04 00:26:56;;;;;;;4.23;3.50;;;19.50;83.30;;;;;;5097409;28;20462;-45
2022/06/04 00:29:23;;;;;;;3.70;3.13;;;19.50;83.80;;;;;;5098224;28;20502;-48
2022/06/04 00:31:51;;;;;;;5.60;3.40;;;19.40;84.70;;;;;;5098221;28;20429;-47
2022/06/04 00:34:18;;;;;;;4.40;2.80;;;19.40;85.80;;;;;;5097915;28;20426;-47
2022/06/04 00:36:45;;;;;;;3.17;2.80;;;19.40;86.80;;;;;;5098039;28;20446;-45
2022/06/04 00:39:12;;;;;;;4.73;3.83;;;19.40;88.00;;;;;;5097667;28;20497;-41
2022/06/04 00:41:47;;;;;;;3.90;3.43;;;19.40;88.90;;;;;;5093648;28;20463;-48
2022/06/04 00:44:46;;;;;;;3.27;2.97;;;19.40;90.10;;;;;;5093411;28;20441;-42
2022/06/04 00:47:23;;;;;;;3.50;3.20;;;19.30;90.50;;;;;;5073822;28;20462;-40
2022/06/04 00:49:54;;;;;;;4.10;3.67;;;19.30;91.00;;;;;;5097568;28;20420;-44
2022/06/04 00:52:22;;;;;;;4.67;3.30;;;19.20;91.40;;;;;;5097597;28;20515;-45
2022/06/04 00:54:52;;;;;;;4.87;3.03;;;19.20;92.20;;;;;;5097339;28;20443;-47
2022/06/04 00:57:46;;;;;;;3.43;3.13;;;19.20;92.70;;;;;;5097534;28;20423;-43
2022/06/04 01:00:18;;;;;;;3.90;3.60;;;19.20;93.10;;;;;;5084383;28;20446;-43
2022/06/04 01:03:06;;;;;;;4.33;3.20;;;19.10;93.60;;;;;;5097401;28;20449;-42
2022/06/04 01:05:42;;;;;;;5.47;3.03;;;19.10;94.20;;;;;;5088473;28;20449;-45
2022/06/04 01:08:25;;;;;;;4.30;3.90;;;19.10;94.60;;;;;;5097009;28;20398;-41
2022/06/04 01:10:59;;;;;;;4.20;3.80;;;19.10;95.10;;;;;;5097645;28;20436;-42
2022/06/04 01:13:36;;;;;;;4.70;3.37;;;19.00;95.50;;;;;;5097563;28;20423;-46
2022/06/04 01:16:12;;;;;;;4.87;3.20;;;19.00;96.00;;;;;;5097023;28;20441;-38
2022/06/04 01:18:50;;;;;;;3.47;3.17;;;19.00;96.60;;;;;;5097264;28;20512;-38
2022/06/04 01:21:24;;;;;;;3.93;3.00;;;19.00;97.20;;;;;;5096992;28;20466;-40
2022/06/04 01:24:27;;;;;;;4.90;3.73;;;19.00;97.60;;;;;;5097147;28;20494;-47
2022/06/04 01:27:08;;;;;;;4.80;3.93;;;18.90;98.30;;;;;;5096131;28;20465;-38
2022/06/04 01:29:40;;;;;;;7.10;4.30;;;18.90;98.70;;;;;;5084022;28;20427;-50
2022/06/04 01:32:11;;;;;;;3.63;3.30;;;18.90;99.00;;;;;;5096511;28;20480;-38
2022/06/04 01:34:44;;;;;;;4.50;3.50;;;19.00;99.40;;;;;;5097107;28;20430;-41
2022/06/04 01:37:15;;;;;;;6.43;3.30;;;19.00;99.70;;;;;;5088639;28;20470;-48
2022/06/04 01:42:34;;;;;;;5.60;3.50;;;19.00;99.90;;;;;;5096414;28;20477;-44
2022/06/04 01:45:05;;;;;;;5.23;3.40;;;18.90;99.90;;;;;;5096712;28;20478;-46
2022/06/04 01:47:33;;;;;;;5.50;3.37;;;18.90;99.90;;;;;;5096329;28;20488;-46
2022/06/04 01:50:03;;;;;;;7.43;3.50;;;18.80;99.90;;;;;;5096567;28;20485;-42
2022/06/04 01:52:33;;;;;;;5.20;3.90;;;18.80;99.90;;;;;;5096299;28;20454;-42
2022/06/04 01:55:05;;;;;;;4.40;3.63;;;18.80;99.90;;;;;;5093275;28;20512;-49
2022/06/04 01:57:39;;;;;;;3.77;3.20;;;18.80;99.90;;;;;;5090659;28;20465;-48
2022/06/04 02:00:11;;;;;;;3.30;3.00;;;18.70;99.90;;;;;;5087424;28;20509;-45
2022/06/04 02:02:41;;;;;;;3.33;2.90;;;18.70;99.90;;;;;;5095604;28;20959;-44
2022/06/04 02:05:16;;;;;;;5.17;4.20;;;18.70;99.90;;;;;;5095925;28;20472;-44
2022/06/04 02:07:48;;;;;;;5.10;3.37;;;18.60;99.90;;;;;;5096032;28;20449;-41
2022/06/04 02:10:20;;;;;;;5.20;4.70;;;18.60;99.90;;;;;;5095804;28;20487;-44
2022/06/04 02:12:52;;;;;;;6.40;3.77;;;18.50;99.90;;;;;;5096202;28;20415;-44
2022/06/04 02:15:22;;;;;;;5.80;4.13;;;18.60;99.90;;;;;;5096471;28;20438;-43
2022/06/04 02:17:56;;;;;;;7.43;3.50;;;18.50;99.90;;;;;;5095719;28;20615;-50
2022/06/04 02:20:24;;;;;;;3.83;3.23;;;18.50;99.90;;;;;;5095903;28;20476;-43
2022/06/04 02:22:52;;;;;;;5.57;3.90;;;18.50;99.90;;;;;;5095840;28;20466;-43
2022/06/04 02:25:22;;;;;;;3.83;3.43;;;18.50;99.90;;;;;;5096304;28;20426;-47
2022/06/04 02:27:51;;;;;;;3.53;2.83;;;18.50;99.90;;;;;;5095546;28;20477;-41
2022/06/04 02:30:20;;;;;;;4.80;4.20;;;18.50;99.90;;;;;;5086475;28;20480;-46
2022/06/04 02:33:02;;;;;;;7.23;3.30;;;18.50;99.90;;;;;;5094026;28;20792;-44
2022/06/04 02:35:37;;;;;;;3.43;3.10;;;18.50;99.90;;;;;;5096320;28;20517;-40
2022/06/04 02:38:11;;;;;;;5.23;3.97;;;18.40;99.90;;;;;;5092748;28;20457;-47
2022/06/04 02:40:46;;;;;;;3.70;3.40;;;18.40;99.90;;;;;;5088709;28;20461;-54
2022/06/04 02:43:20;;;;;;;4.23;3.60;;;18.40;99.90;;;;;;5094009;28;20434;-44
2022/06/04 02:45:55;;;;;;;3.80;3.40;;;18.40;99.90;;;;;;5095672;28;20513;-44
2022/06/04 02:48:28;;;;;;;5.07;2.97;;;18.30;99.90;;;;;;5095899;28;20430;-46
2022/06/04 02:51:00;;;;;;;7.57;3.40;;;18.30;99.90;;;;;;5095846;28;20470;-44
2022/06/04 02:53:30;;;;;;;5.50;3.30;;;18.30;99.90;;;;;;5096016;28;20483;-45
2022/06/04 02:56:00;;;;;;;3.90;2.60;;;18.30;99.90;;;;;;5096151;28;20470;-43
2022/06/04 02:58:31;;;;;;;3.83;3.27;;;18.30;99.90;;;;;;5095502;28;20477;-43
2022/06/04 03:00:59;;;;;;;4.10;2.83;;;18.30;99.90;;;;;;5096148;28;20443;-57
2022/06/04 03:03:27;;;;;;;3.60;3.03;;;18.20;99.90;;;;;;5095666;28;20446;-47
2022/06/04 03:05:56;;;;;;;6.03;2.80;;;18.20;99.90;;;;;;5096099;28;20471;-44
2022/06/04 03:08:24;;;;;;;3.83;3.20;;;18.20;99.90;;;;;;5096095;28;20430;-41
2022/06/04 03:10:51;;;;;;;3.83;3.10;;;18.20;99.90;;;;;;5088448;28;20528;-46
2022/06/04 03:13:18;;;;;;;4.60;2.80;;;18.10;99.90;;;;;;5090956;28;20450;-42
2022/06/04 03:15:47;;;;;;;3.03;2.67;;;18.10;99.90;;;;;;5095990;28;20418;-54
2022/06/04 03:18:14;;;;;;;3.67;3.37;;;18.00;99.90;;;;;;5095495;28;20450;-46
2022/06/04 03:20:42;;;;;;;3.97;3.30;;;18.00;99.90;;;;;;5084131;28;20497;-47
2022/06/04 03:23:11;;;;;;;4.60;3.07;;;18.00;99.90;;;;;;5091765;28;20502;-47
2022/06/04 03:25:39;;;;;;;5.90;3.40;;;18.00;99.90;;;;;;5096000;28;20882;-47
2022/06/04 03:28:07;;;;;;;3.50;3.20;;;18.00;99.90;;;;;;5095913;28;20480;-51
2022/06/04 03:30:35;;;;;;;4.07;3.33;;;18.00;99.90;;;;;;5087272;28;20472;-44
2022/06/04 03:33:04;;;;;;;4.30;2.97;;;17.90;99.90;;;;;;5095634;28;20446;-40
2022/06/04 03:35:32;;;;;;;5.50;3.00;;;17.90;99.90;;;;;;5095267;28;20466;-45
2022/06/04 03:37:59;;;;;;;5.77;3.20;;;17.90;99.90;;;;;;5095106;28;20492;-45
2022/06/04 03:40:26;;;;;;;2.53;2.30;;;17.90;99.90;;;;;;5094862;28;20489;-47
2022/06/04 03:42:53;;;;;;;4.10;3.00;;;17.80;99.90;;;;;;5084353;28;20474;-49
2022/06/04 03:45:20;;;;;;;4.87;2.90;;;17.90;99.90;;;;;;5095177;28;20514;-43
2022/06/04 03:47:46;;;;;;;2.50;2.30;;;17.80;99.90;;;;;;5095480;28;20414;-44
2022/06/04 03:50:17;;;;;;;7.50;3.17;;;17.90;99.90;;;;;;5094775;28;20453;-44
2022/06/04 03:52:47;;;;;;;3.23;2.53;;;17.80;99.90;;;;;;5095112;28;20534;-42
2022/06/04 03:55:15;;;;;;;5.97;3.53;;;17.80;99.90;;;;;;5082995;28;20529;-48
2022/06/04 03:57:48;;;;;;;3.83;3.10;;;17.80;99.90;;;;;;5093630;28;20474;-45
2022/06/04 04:00:20;;;;;;;4.37;2.77;;;17.80;99.90;;;;;;5098894;28;20486;-47
2022/06/04 04:02:48;;;;;;;4.57;3.13;;;17.80;99.90;;;;;;5098066;28;20950;-46
2022/06/04 04:05:20;;;;;;;2.60;2.40;;;17.80;99.90;;;;;;5098808;28;20433;-42
2022/06/04 04:07:47;;;;;;;4.17;3.33;;;17.80;99.90;;;;;;5092787;28;20425;-49
2022/06/04 04:10:14;;;;;;;5.43;2.70;;;17.80;99.90;;;;;;5090738;28;20453;-51
2022/06/04 04:12:41;;;;;;;3.40;3.07;;;17.80;99.90;;;;;;5096763;28;20454;-46
2022/06/04 04:15:10;;;;;;;4.47;3.10;;;17.80;99.90;;;;;;5099202;28;20463;-42
2022/06/04 04:17:39;;;;;;;4.30;3.27;;;17.80;99.90;;;;;;5089727;28;20459;-42
2022/06/04 04:20:08;;;;;;;7.73;3.17;;;17.80;99.90;;;;;;5098065;28;20532;-42
2022/06/04 04:22:36;;;;;;;5.50;2.80;;;17.80;99.90;;;;;;5086473;28;20511;-51
2022/06/04 04:25:04;;;;;;;6.00;2.80;;;17.80;99.90;;;;;;5097590;28;20439;-43
2022/06/04 04:27:30;;;;;;;3.27;2.77;;;17.80;99.90;;;;;;5098429;28;20466;-40
2022/06/04 04:29:57;;;;;;;3.87;2.77;;;17.80;99.90;;;;;;5098542;28;20427;-36
2022/06/04 04:32:24;;;;;;;3.30;2.60;;;17.80;99.90;;;;;;5098772;28;20477;-46
2022/06/04 04:34:51;;;;;;;3.63;2.53;;;17.80;99.90;;;;;;5088071;28;20804;-47
2022/06/04 04:37:18;;;;;;;5.47;3.37;;;17.80;99.90;;;;;;5088630;28;20513;-40
2022/06/04 04:39:46;;;;;;;3.70;2.60;;;17.80;99.90;;;;;;5098289;28;20482;-50
2022/06/04 04:42:13;;;;;;;2.50;2.30;;;17.80;99.90;;;;;;5098443;28;20493;-42
2022/06/04 04:44:40;;;;;;;2.83;2.60;;;17.80;99.90;;;;;;5097988;28;20446;-41
2022/06/04 04:47:10;;;;;;;5.30;2.53;;;17.80;99.90;;;;;;5098087;28;20553;-40
2022/06/04 04:49:37;;;;;;;5.47;2.63;;;17.80;99.90;;;;;;5097416;28;20450;-41
2022/06/04 04:52:05;;;;;;;3.27;2.87;;;17.80;99.90;;;;;;5097693;28;20447;-39
2022/06/04 04:54:32;;;;;;;4.93;3.13;;;17.80;99.90;;;;;;5097371;28;20470;-43
2022/06/04 04:57:01;;;;;;;4.73;2.90;;;17.90;99.90;;;;;;5097301;28;20465;-42
2022/06/04 04:59:28;;;;;;;2.70;2.50;;;17.90;99.90;;;;;;5087108;28;20512;-45
2022/06/04 05:01:55;;;;;;;3.50;2.77;;;18.00;99.90;;;;;;5097599;28;20443;-46
2022/06/04 05:04:22;;;;;;;4.17;2.40;;;18.00;99.90;;;;;;5097824;28;20454;-38
2022/06/04 05:06:49;;;;;;;4.57;2.70;;;18.00;99.90;;;;;;5097568;28;20430;-46
2022/06/04 05:09:16;;;;;;;5.30;3.00;;;18.00;99.90;;;;;;5096892;28;20462;-45
2022/06/04 05:11:43;;;;;;;3.47;2.90;;;18.00;99.90;;;;;;5097150;28;20490;-43
2022/06/04 05:14:11;;;;;;;3.87;3.00;;;18.00;99.90;;;;;;5089713;28;20538;-42
2022/06/04 05:16:39;;;;;;;4.17;3.07;;;18.00;99.90;;;;;;5097053;28;20474;-42
2022/06/04 05:19:09;;;;;;;3.43;2.37;;;18.10;99.90;;;;;;5096956;28;20430;-47
2022/06/04 05:21:40;;;;;;;4.93;2.77;;;18.10;99.90;;;;;;5096907;28;20463;-41
2022/06/04 05:24:08;;;;;;;3.63;2.67;;;18.10;99.90;;;;;;5096931;28;20482;-41
2022/06/04 05:26:35;;;;;;;6.07;3.00;;;18.10;99.90;;;;;;5094246;28;20454;-44
2022/06/04 05:29:02;;;;;;;4.80;2.37;;;18.10;99.90;;;;;;5093877;28;20454;-40
2022/06/04 05:31:30;;;;;;;2.80;2.50;;;18.10;99.90;;;;;;5096519;28;20453;-40
2022/06/04 05:33:58;;;;;;;6.40;2.20;;;18.10;99.90;;;;;;5096631;28;20450;-44
2022/06/04 05:36:29;;;;;;;8.90;2.67;;;18.00;99.90;;;;;;5096893;28;20442;-47
2022/06/04 05:38:56;;;;;;;3.10;2.37;;;18.00;99.90;;;;;;5097172;28;20466;-42
2022/06/04 05:41:23;;;;;;;5.00;2.80;;;18.00;99.90;;;;;;5097257;28;20490;-42
2022/06/04 05:43:50;;;;;;;5.73;2.73;;;18.00;99.90;;;;;;5094654;28;20485;-47
2022/06/04 05:46:19;;;;;;;3.27;2.63;;;17.90;99.90;;;;;;5082293;28;20458;-48
2022/06/04 05:48:50;;;;;;;2.90;2.53;;;17.90;99.90;;;;;;5093119;28;20447;-51
2022/06/04 05:51:20;;;;;;;4.30;3.00;;;17.90;99.90;;;;;;5093884;28;20423;-49
2022/06/04 05:53:48;;;;;;;4.50;2.53;;;18.00;99.90;;;;;;5088574;28;20481;-42
2022/06/04 05:56:18;;;;;;;4.80;2.13;;;18.10;99.90;;;;;;5096263;28;20518;-47
2022/06/04 05:58:46;;;;;;;3.73;2.40;;;18.20;99.90;;;;;;5097064;28;20410;-46
2022/06/04 06:01:13;;;;;;;3.70;2.30;;;18.50;99.90;;;;;;5096390;28;20553;-45
2022/06/04 06:03:40;;;;;;;5.73;3.07;;;18.70;99.90;;;;;;5096302;28;20452;-43
2022/06/04 06:06:16;;;;;;;2.70;2.33;;;18.90;99.90;;;;;;5095852;28;20422;-47
2022/06/04 06:08:43;;;;;;;3.33;2.27;;;19.10;99.90;;;;;;5095774;28;20453;-43
2022/06/04 06:11:13;;;;;;;2.43;2.23;;;19.20;99.90;;;;;;5090878;28;20474;-45
2022/06/04 06:13:42;;;;;;;5.10;3.03;;;19.30;99.90;;;;;;5076337;28;20455;-45
2022/06/04 06:16:11;;;;;;;2.50;2.30;;;19.30;99.90;;;;;;5066842;28;20471;-47
2022/06/04 06:18:39;;;;;;;5.37;2.67;;;19.40;99.90;;;;;;5072900;28;20491;-43
2022/06/04 06:21:07;;;;;;;3.47;2.60;;;19.40;99.90;;;;;;5075297;28;20518;-45
2022/06/04 06:23:37;;;;;;;4.77;2.97;;;19.50;99.90;;;;;;5075690;28;20473;-38
2022/06/04 06:26:05;;;;;;;3.20;2.90;;;19.60;99.90;;;;;;5075515;28;20535;-49
2022/06/04 06:28:35;;;;;;;3.60;3.30;;;19.60;99.90;;;;;;5076011;28;20468;-41
2022/06/04 06:31:02;;;;;;;4.17;2.40;;;19.60;99.90;;;;;;5066967;28;20447;-40
2022/06/04 06:33:36;;;;;;;3.63;3.33;;;19.60;99.90;;;;;;5075562;28;20477;-45
2022/06/04 06:36:06;;;;;;;8.87;2.77;;;19.70;99.90;;;;;;5076045;28;20443;-50
2022/06/04 06:38:33;;;;;;;4.53;2.77;;;19.80;99.90;;;;;;5075585;28;20459;-40
2022/06/04 06:41:03;;;;;;;6.43;3.17;;;19.80;99.90;;;;;;5075820;28;20570;-45
2022/06/04 06:43:34;;;;;;;4.57;3.37;;;19.90;99.90;;;;;;5075880;28;20502;-38
2022/06/04 06:46:04;;;;;;;4.27;2.67;;;20.00;99.90;;;;;;5075727;28;20466;-48
2022/06/04 06:48:31;;;;;;;3.90;3.00;;;20.20;99.90;;;;;;5075240;28;20499;-43
2022/06/04 06:50:59;;;;;;;3.90;2.70;;;20.40;99.70;;;;;;5076030;28;20498;-40
2022/06/04 06:53:25;;;;;;;6.03;2.93;;;20.60;99.40;;;;;;5076035;28;20463;-50
2022/06/04 06:55:52;;;;;;;7.23;3.37;;;20.90;99.10;;;;;;5075865;28;20426;-41
2022/06/04 06:58:20;;;;;;;3.50;2.93;;;21.10;98.20;;;;;;5074971;28;20434;-41
2022/06/04 07:00:47;;;;;;;4.03;3.50;;;21.30;97.30;;;;;;5074223;28;20478;-44
2022/06/04 07:03:14;;;;;;;4.07;3.07;;;21.40;96.90;;;;;;5077717;28;20466;-43
2022/06/04 07:05:41;;;;;;;4.70;3.40;;;21.40;96.70;;;;;;5067153;28;20467;-43
2022/06/04 07:08:08;;;;;;;4.07;3.67;;;21.50;96.40;;;;;;5075589;28;20507;-42
2022/06/04 07:10:35;;;;;;;3.90;3.10;;;21.70;96.00;;;;;;5075387;28;20494;-50
2022/06/04 07:13:01;;;;;;;3.13;2.60;;;21.80;95.40;;;;;;5074726;28;20443;-45
2022/06/04 07:15:30;;;;;;;3.83;3.10;;;22.10;94.60;;;;;;5075545;28;20463;-44
2022/06/04 07:17:56;;;;;;;4.73;2.93;;;22.30;94.20;;;;;;5075065;28;20432;-45
2022/06/04 07:20:24;;;;;;;8.70;3.57;;;22.50;93.60;;;;;;5075193;28;20471;-42
2022/06/04 07:22:52;;;;;;;3.50;3.00;;;22.80;92.80;;;;;;5074694;28;20463;-44
2022/06/04 07:25:21;;;;;;;3.80;3.37;;;23.00;91.80;;;;;;5075205;28;20435;-41
2022/06/04 07:27:48;;;;;;;5.60;3.43;;;23.00;91.50;;;;;;5075037;28;20451;-47
2022/06/04 07:30:15;;;;;;;5.03;3.40;;;22.90;91.00;;;;;;5073854;28;20552;-44
2022/06/04 07:32:43;;;;;;;4.50;3.50;;;22.80;90.80;;;;;;5082186;28;20513;-46
2022/06/04 07:35:10;;;;;;;3.20;2.90;;;22.80;90.90;;;;;;5098750;28;20427;-44
2022/06/04 07:37:37;;;;;;;4.77;3.17;;;22.80;90.80;;;;;;5098041;28;20497;-43
2022/06/04 07:40:04;;;;;;;5.90;2.90;;;22.90;91.10;;;;;;5098157;28;20470;-42
2022/06/04 07:42:33;;;;;;;3.10;2.70;;;23.00;89.70;;;;;;5079749;28;20447;-47
2022/06/04 07:45:00;;;;;;;3.17;2.87;;;22.90;88.20;;;;;;5077892;28;20450;-46
2022/06/04 07:47:29;;;;;;;5.47;3.23;;;22.70;88.50;;;;;;5077654;28;20998;-47
2022/06/04 07:49:58;;;;;;;4.03;2.90;;;22.40;88.70;;;;;;5079153;28;20490;-43
2022/06/04 07:52:24;;;;;;;5.10;2.93;;;22.20;88.50;;;;;;5078653;28;20483;-48
2022/06/04 07:54:53;;;;;;;3.83;3.53;;;21.90;89.40;;;;;;5080325;28;20535;-49
2022/06/04 07:57:20;;;;;;;4.13;3.70;;;21.70;90.10;;;;;;5093922;28;20461;-47
2022/06/04 07:59:48;;;;;;;3.07;2.80;;;21.50;90.10;;;;;;5079217;28;20483;-45
2022/06/04 08:02:15;;;;;;;5.70;2.80;;;21.30;90.40;;;;;;5085233;28;20446;-44
2022/06/04 08:04:42;;;;;;;4.23;3.43;;;21.20;90.50;;;;;;5088209;28;20522;-44
2022/06/04 08:07:10;;;;;;;3.37;3.07;;;21.10;90.40;;;;;;5098945;28;20442;-46
2022/06/04 08:09:37;;;;;;;3.73;3.43;;;21.10;90.50;;;;;;5079468;28;20501;-41
2022/06/04 08:12:04;;;;;;;5.00;3.63;;;21.10;90.30;;;;;;5077927;28;20535;-40
2022/06/04 08:14:31;;;;;;;12.03;3.20;;;21.10;90.30;;;;;;5077793;28;20471;-49
2022/06/04 08:17:01;;;;;;;3.67;2.73;;;21.00;90.70;;;;;;5091622;28;20441;-47
2022/06/04 08:19:30;;;;;;;7.90;3.13;;;21.00;90.90;;;;;;5081978;28;20514;-45
2022/06/04 08:21:57;;;;;;;3.13;2.80;;;21.00;90.90;;;;;;5078322;28;20523;-48
2022/06/04 08:24:26;;;;;;;4.47;2.80;;;21.00;90.20;;;;;;5077377;28;20507;-48
2022/06/04 08:26:58;;;;;;;4.33;2.97;;;21.00;90.50;;;;;;5077888;28;20454;-48
2022/06/04 08:29:26;;;;;;;3.70;2.53;;;21.00;90.70;;;;;;5097603;28;20439;-46
2022/06/04 08:31:53;;;;;;;4.53;2.40;;;21.10;90.30;;;;;;5087282;28;20491;-46
2022/06/04 08:34:21;;;;;;;4.03;3.20;;;21.10;90.10;;;;;;5085145;28;20444;-46
2022/06/04 08:36:48;;;;;;;3.23;2.20;;;21.10;89.70;;;;;;5087087;28;20508;-46
2022/06/04 08:39:16;;;;;;;4.00;2.60;;;21.10;89.80;;;;;;5092986;28;20521;-49
2022/06/04 08:42:14;;;;;;;5.03;2.47;;;21.10;90.20;;;;;;5095209;28;20497;-46
2022/06/04 08:44:44;;;;;;;3.83;2.63;;;21.10;90.60;;;;;;5086926;28;20469;-45
2022/06/04 08:47:17;;;;;;;4.70;2.60;;;21.10;90.00;;;;;;5097712;28;20478;-45
2022/06/04 08:49:48;;;;;;;2.63;2.43;;;21.20;90.00;;;;;;5080841;28;20451;-47
2022/06/04 08:52:20;;;;;;;4.43;2.40;;;21.20;90.10;;;;;;5098028;28;20467;-47
2022/06/04 08:57:42;;;;;;;4.33;2.30;;;21.30;90.30;;;;;;5067359;28;20429;-49
2022/06/04 09:00:14;;;;;;;18.30;4.10;;;21.30;90.10;;;;;;5077356;28;20436;-45
2022/06/04 09:03:05;;;;;;;3.63;2.70;;;21.30;90.20;;;;;;5077838;28;20513;-45
2022/06/04 09:05:47;;;;;;;3.57;2.63;;;21.30;90.40;;;;;;5066747;28;20458;-45
2022/06/04 09:08:21;;;;;;;4.20;2.63;;;21.20;90.50;;;;;;5083822;28;20535;-43
2022/06/04 09:10:52;;;;;;;4.23;2.80;;;21.20;90.70;;;;;;5085825;28;20443;-48
2022/06/04 09:13:27;;;;;;;4.50;2.43;;;21.30;90.60;;;;;;5093369;28;20427;-46
2022/06/04 09:15:57;;;;;;;2.70;2.50;;;21.30;90.70;;;;;;5077067;28;20450;-45
2022/06/04 09:18:31;;;;;;;4.50;3.07;;;21.40;91.30;;;;;;5085116;28;20462;-47
2022/06/04 09:20:59;;;;;;;6.37;3.13;;;21.50;91.40;;;;;;5084492;28;20475;-47
2022/06/04 09:23:42;;;;;;;3.13;2.70;;;21.60;91.00;;;;;;5093123;28;20548;-38
2022/06/04 09:26:21;;;;;;;4.93;2.90;;;21.70;90.60;;;;;;5090552;28;20447;-44
2022/06/04 09:28:59;;;;;;;3.43;3.03;;;21.80;90.80;;;;;;5064391;28;20435;-47
2022/06/04 09:31:33;;;;;;;5.30;3.20;;;21.80;90.40;;;;;;5075905;28;20450;-41
2022/06/04 09:34:04;;;;;;;3.77;2.90;;;21.80;90.10;;;;;;5075278;28;20531;-44
2022/06/04 09:36:34;;;;;;;2.70;2.50;;;21.90;90.50;;;;;;5075810;28;20468;-47
2022/06/04 09:39:03;;;;;;;4.30;2.70;;;21.90;90.50;;;;;;5076455;28;20550;-45
2022/06/04 09:41:32;;;;;;;3.20;2.70;;;21.90;90.40;;;;;;5076021;28;20535;-45
2022/06/04 09:44:08;;;;;;;4.40;3.10;;;21.90;90.30;;;;;;5076141;28;20518;-43
2022/06/04 09:46:36;;;;;;;3.90;2.43;;;22.00;90.50;;;;;;5075885;28;20463;-49
2022/06/04 09:49:14;;;;;;;3.03;2.73;;;22.00;89.50;;;;;;5075971;28;20455;-46
2022/06/04 09:51:44;;;;;;;5.73;2.83;;;22.00;90.00;;;;;;5076083;28;20400;-40
2022/06/04 09:54:22;;;;;;;4.03;3.40;;;22.10;89.10;;;;;;5076109;28;20822;-42
2022/06/04 09:56:53;;;;;;;7.70;3.73;;;22.20;90.00;;;;;;5075206;28;20478;-46
2022/06/04 09:59:25;;;;;;;3.77;2.83;;;22.30;89.20;;;;;;5060973;28;20442;-51
2022/06/04 10:01:54;;;;;;;4.93;3.20;;;22.40;88.10;;;;;;5076095;28;20490;-50
2022/06/04 10:04:21;;;;;;;2.97;2.40;;;22.40;86.70;;;;;;5075996;28;20435;-47
2022/06/04 10:06:48;;;;;;;3.30;2.87;;;22.50;87.60;;;;;;5075719;28;20460;-43
2022/06/04 10:12:05;;;;;;;9.80;3.53;;;22.60;86.80;;;;;;5075923;28;20438;-38
2022/06/04 10:14:34;;;;;;;3.30;2.87;;;22.60;87.40;;;;;;5075986;28;20455;-45
2022/06/04 10:17:02;;;;;;;3.30;2.30;;;22.60;87.70;;;;;;5075397;28;20432;-44
2022/06/04 10:19:31;;;;;;;3.77;2.60;;;22.60;89.10;;;;;;5075857;28;20492;-49
2022/06/04 10:22:11;;;;;;;4.07;3.07;;;22.60;89.20;;;;;;5075925;28;20498;-46
2022/06/04 10:24:49;;;;;;;7.40;5.90;;;22.70;89.40;;;;;;5075769;28;20550;-47
2022/06/04 10:27:39;;;;;;;3.63;2.67;;;22.70;87.40;;;;;;5075379;28;20434;-50
2022/06/04 10:30:17;;;;;;;3.83;3.07;;;22.80;86.60;;;;;;5075552;28;20510;-44
2022/06/04 10:32:56;;;;;;;6.63;2.90;;;22.90;86.60;;;;;;5075456;28;20447;-49
2022/06/04 10:35:33;;;;;;;3.80;2.70;;;23.00;86.50;;;;;;5075886;28;20510;-47
2022/06/04 10:38:12;;;;;;;3.40;3.10;;;23.10;84.70;;;;;;5075828;28;20434;-42
2022/06/04 10:40:47;;;;;;;3.83;2.87;;;23.20;84.80;;;;;;5075581;28;20501;-38
2022/06/04 10:43:39;;;;;;;6.10;3.13;;;23.30;85.20;;;;;;5075537;28;20450;-43
2022/06/04 10:46:18;;;;;;;4.60;3.27;;;23.40;83.50;;;;;;5075096;28;20502;-42
2022/06/04 10:49:08;;;;;;;6.83;2.70;;;23.40;85.40;;;;;;5075313;28;20457;-41
2022/06/04 10:51:47;;;;;;;4.77;2.67;;;23.50;85.70;;;;;;5075145;28;20521;-45
2022/06/04 10:54:21;;;;;;;4.00;3.27;;;23.50;84.70;;;;;;5075486;28;20491;-41
2022/06/04 10:56:55;;;;;;;4.30;3.60;;;23.60;85.30;;;;;;5074894;28;20455;-41
2022/06/04 10:59:32;;;;;;;5.43;3.47;;;23.80;85.20;;;;;;5075128;28;20419;-46
2022/06/04 11:02:10;;;;;;;3.30;3.00;;;24.00;84.90;;;;;;5074556;28;20451;-46
2022/06/04 11:04:46;;;;;;;2.83;2.60;;;24.20;82.00;;;;;;5075598;28;20443;-45
2022/06/04 11:07:29;;;;;;;5.17;3.20;;;24.50;82.90;;;;;;5076079;28;20441;-50
2022/06/04 11:09:57;;;;;;;3.90;2.90;;;25.10;82.20;;;;;;5079522;28;20439;-39
2022/06/04 11:12:34;;;;;;;4.03;2.73;;;25.60;77.80;;;;;;5079407;28;20470;-47
2022/06/04 11:15:07;;;;;;;4.10;3.07;;;25.90;78.00;;;;;;5078983;28;20469;-43
2022/06/04 11:17:43;;;;;;;4.77;2.87;;;26.20;76.80;;;;;;5079751;28;20475;-50
2022/06/04 11:20:14;;;;;;;3.10;2.67;;;26.40;74.70;;;;;;5079056;28;20480;-44
2022/06/04 11:22:48;;;;;;;4.53;3.30;;;26.40;74.30;;;;;;5079099;28;20497;-45
2022/06/04 11:25:24;;;;;;;2.63;2.43;;;26.50;74.60;;;;;;5078629;28;20531;-46
2022/06/04 11:27:55;;;;;;;5.30;2.53;;;26.70;73.70;;;;;;5078560;28;20423;-48
2022/06/04 11:30:29;;;;;;;5.43;2.40;;;26.80;72.30;;;;;;5078470;28;20522;-45
2022/06/04 11:33:08;;;;;;;4.93;3.50;;;26.80;72.40;;;;;;5078500;28;20422;-46
2022/06/04 11:35:42;;;;;;;7.13;3.57;;;26.80;71.90;;;;;;5077759;28;20423;-43
2022/06/04 11:38:36;;;;;;;3.80;3.50;;;26.60;71.50;;;;;;5078298;28;20952;-49
2022/06/04 11:41:19;;;;;;;4.40;2.90;;;26.40;72.30;;;;;;5077339;28;20451;-42
2022/06/04 11:44:00;;;;;;;3.53;2.70;;;26.40;71.00;;;;;;5078615;28;20423;-49
2022/06/04 11:46:37;;;;;;;3.37;3.00;;;26.30;70.80;;;;;;5076768;28;20522;-39
2022/06/04 11:49:18;;;;;;;5.07;3.60;;;26.20;70.80;;;;;;5078016;28;20674;-44
2022/06/04 11:52:03;;;;;;;4.10;3.20;;;26.10;71.50;;;;;;5078471;28;20424;-43
2022/06/04 11:54:44;;;;;;;6.03;3.10;;;25.90;70.60;;;;;;5079069;28;20462;-40
2022/06/04 11:57:20;;;;;;;3.20;2.90;;;25.90;71.90;;;;;;5078578;28;20440;-41
2022/06/04 11:59:59;;;;;;;3.50;3.10;;;25.80;71.40;;;;;;5078292;28;20434;-47
2022/06/04 12:02:32;;;;;;;3.60;3.20;;;25.80;71.80;;;;;;5078140;28;20458;-47
2022/06/04 12:05:11;;;;;;;2.73;2.50;;;25.90;70.90;;;;;;5078278;28;20486;-48
2022/06/04 12:07:41;;;;;;;4.73;3.57;;;26.10;71.10;;;;;;5078232;28;20423;-41
2022/06/04 12:10:22;;;;;;;5.87;3.73;;;26.30;68.70;;;;;;5078132;28;20494;-43
2022/06/04 12:12:58;;;;;;;4.03;3.63;;;26.40;68.10;;;;;;5067930;28;20451;-45
2022/06/04 12:15:33;;;;;;;5.17;3.90;;;26.40;68.80;;;;;;5075120;28;20493;-46
2022/06/04 12:18:04;;;;;;;6.63;3.50;;;26.30;68.20;;;;;;5078149;28;20409;-41
2022/06/04 12:26:22;;;;;;;3.33;3.03;;;26.50;68.60;;;;;;5077362;28;20494;-44
2022/06/04 12:28:49;;;;;;;4.20;3.00;;;26.50;68.20;;;;;;5077993;28;20447;-42
2022/06/04 12:31:28;;;;;;;3.43;3.13;;;26.40;68.20;;;;;;5077342;28;20547;-46
2022/06/04 12:33:57;;;;;;;4.07;3.00;;;26.40;68.60;;;;;;5078267;28;20427;-43
2022/06/04 12:36:28;;;;;;;5.20;2.90;;;26.30;69.10;;;;;;5077691;28;20467;-47
2022/06/04 12:39:04;;;;;;;4.00;3.20;;;26.30;69.60;;;;;;5077488;28;20434;-42
2022/06/04 12:41:43;;;;;;;3.83;3.53;;;26.30;70.80;;;;;;5077229;28;20475;-44
2022/06/04 12:44:26;;;;;;;4.07;3.23;;;26.30;69.70;;;;;;5077622;28;20578;-47
2022/06/04 12:46:54;;;;;;;3.53;3.23;;;26.30;70.30;;;;;;5076808;28;20443;-46
2022/06/04 12:49:38;;;;;;;4.03;3.63;;;26.40;71.50;;;;;;5077262;28;20562;-39
2022/06/04 12:55:18;;;;;;;3.57;3.27;;;26.40;72.10;;;;;;5077514;28;20454;-43
2022/06/04 12:57:52;;;;;;;4.10;3.70;;;26.30;72.30;;;;;;5077013;28;20443;-44
2022/06/04 13:00:38;;;;;;;5.83;3.30;;;26.30;72.30;;;;;;5077076;28;20463;-40
2022/06/04 13:03:31;;;;;;;4.23;3.60;;;26.20;72.00;;;;;;5076955;28;20536;-42
2022/06/04 13:06:02;;;;;;;5.20;4.40;;;26.00;71.90;;;;;;5077213;28;20498;-43
2022/06/04 13:08:38;;;;;;;4.10;3.70;;;26.00;73.00;;;;;;5077247;28;20470;-42
2022/06/04 13:11:18;;;;;;;3.40;3.10;;;25.90;73.00;;;;;;5065189;28;20476;-41
2022/06/04 13:13:51;;;;;;;6.10;3.80;;;26.00;73.20;;;;;;5068914;28;20458;-42
2022/06/04 13:16:20;;;;;;;3.80;3.40;;;26.00;73.80;;;;;;5076200;28;20474;-46
2022/06/04 13:18:59;;;;;;;6.13;3.33;;;25.90;73.60;;;;;;5077328;28;20487;-41
2022/06/04 13:21:28;;;;;;;4.37;3.33;;;25.90;73.20;;;;;;5075273;28;20438;-41
2022/06/04 13:24:00;;;;;;;4.40;3.60;;;25.80;73.20;;;;;;5075527;28;20424;-45
2022/06/04 13:26:32;;;;;;;4.53;3.30;;;25.70;73.20;;;;;;5077017;28;20436;-43
2022/06/04 13:29:00;;;;;;;5.67;3.67;;;25.70;73.70;;;;;;5069161;28;20995;-47
2022/06/04 13:31:29;;;;;;;4.17;3.30;;;25.80;72.00;;;;;;5071310;28;20423;-46
2022/06/04 13:33:58;;;;;;;5.37;3.43;;;25.90;71.90;;;;;;5076110;28;20452;-44